Terminal Aerodrome Forecast
Issued by NWS

Home | Current Version | Previous Version | Text Only | Print | Product List | Glossary On
Versions: 1 2 3 4 5 6 7 8 9 10 11 12 13 14 15 16 17 18 19
000
FTUS43 KLSX 241136
TAFUIN
TAF
KUIN 241136Z 2412/2512 01007KT P6SM BKN030
      TEMPO 2412/2414 BKN015
     FM241400 01008KT P6SM BKN045
     FM241600 01010G17KT P6SM SCT070
     FM250100 35006KT P6SM FEW250=

USA.gov is the U.S. government's official web portal to all federal, state and local government web resources and services.